Time;durP1;ratioP1;P1;durP2;ratioP2;P2;SDS_P1;SDS_P2;PMS_P1;PMS_P2;Temp;Humidity;BMP_temperature;BMP_pressure;BME280_temperature;BME280_humidity;BME280_pressure;Samples;Min_cycle;Max_cycle;Signal;HPM_P1;HPM_P2
2023/07/30 00:01:32;;;;;;;0.00;0.00;;;;;;;;;;7377855;19;20153;-70
2023/07/30 00:04:04;;;;;;;0.00;0.00;;;;;;;;;;7380911;19;20133;-69
2023/07/30 00:06:33;;;;;;;0.00;0.00;;;;;;;;;;7379298;19;20209;-68
2023/07/30 00:09:02;;;;;;;0.00;0.00;;;;;;;;;;7381137;19;20148;-69
2023/07/30 00:11:31;;;;;;;0.00;0.00;;;;;;;;;;7378451;19;20160;-68
2023/07/30 00:14:00;;;;;;;0.00;0.00;;;;;;;;;;7381271;19;20144;-68
2023/07/30 00:16:28;;;;;;;0.00;0.00;;;;;;;;;;7381600;19;20161;-71
2023/07/30 00:18:57;;;;;;;0.00;0.00;;;;;;;;;;7378647;19;20734;-68
2023/07/30 00:21:29;;;;;;;0.00;0.00;;;;;;;;;;7379270;19;20157;-69
2023/07/30 00:23:55;;;;;;;0.00;0.00;;;;;;;;;;7380463;19;20129;-70
2023/07/30 00:26:26;;;;;;;0.00;0.00;;;;;;;;;;7381588;19;20129;-69
2023/07/30 00:28:55;;;;;;;0.00;0.00;;;;;;;;;;7384388;19;20152;-69
2023/07/30 00:31:24;;;;;;;0.00;0.00;;;;;;;;;;7384613;19;20187;-70
2023/07/30 00:33:53;;;;;;;0.00;0.00;;;;;;;;;;7385407;19;20152;-69
2023/07/30 00:36:21;;;;;;;0.00;0.00;;;;;;;;;;7386971;19;20185;-69
2023/07/30 00:38:53;;;;;;;0.00;0.00;;;;;;;;;;7385500;19;20767;-70
2023/07/30 00:41:22;;;;;;;0.00;0.00;;;;;;;;;;7377860;19;20188;-69
2023/07/30 00:43:51;;;;;;;0.00;0.00;;;;;;;;;;7386298;19;20157;-70
2023/07/30 00:46:20;;;;;;;0.00;0.00;;;;;;;;;;7388753;19;20141;-69
2023/07/30 00:48:50;;;;;;;0.00;0.00;;;;;;;;;;7385313;19;20175;-69
2023/07/30 00:51:19;;;;;;;0.00;0.00;;;;;;;;;;7384403;19;20247;-71
2023/07/30 00:53:49;;;;;;;0.00;0.00;;;;;;;;;;7385818;19;20156;-69
2023/07/30 00:56:20;;;;;;;0.00;0.00;;;;;;;;;;7386370;19;20155;-68
2023/07/30 00:58:51;;;;;;;0.00;0.00;;;;;;;;;;7384479;19;20148;-69
2023/07/30 01:01:20;;;;;;;0.00;0.00;;;;;;;;;;7383263;19;20188;-70
2023/07/30 01:03:51;;;;;;;0.00;0.00;;;;;;;;;;7385782;19;20153;-69
2023/07/30 01:06:20;;;;;;;0.00;0.00;;;;;;;;;;7386132;19;20157;-69
2023/07/30 01:08:49;;;;;;;0.00;0.00;;;;;;;;;;7385397;19;20256;-70
2023/07/30 01:11:22;;;;;;;0.00;0.00;;;18.60;99.90;;;;;;7384057;19;20177;-69
2023/07/30 01:13:51;;;;;;;0.00;0.00;;;;;;;;;;7385494;19;20186;-70
2023/07/30 01:16:20;;;;;;;0.00;0.00;;;;;;;;;;7386708;19;20156;-70
2023/07/30 01:18:49;;;;;;;0.00;0.00;;;;;;;;;;7385318;19;20152;-69
2023/07/30 01:21:21;;;;;;;0.00;0.00;;;;;;;;;;7383311;19;20239;-70
2023/07/30 01:23:50;;;;;;;0.00;0.00;;;;;;;;;;7384956;19;20170;-70
2023/07/30 01:26:22;;;;;;;0.00;0.00;;;;;;;;;;7386713;19;20162;-69
2023/07/30 01:28:52;;;;;;;0.00;0.00;;;;;;;;;;7384364;19;20160;-69
2023/07/30 01:31:21;;;;;;;0.00;0.00;;;;;;;;;;7382621;19;20177;-71
2023/07/30 01:33:51;;;;;;;0.00;0.00;;;;;;;;;;7383526;19;20152;-69
2023/07/30 01:36:23;;;;;;;0.00;0.00;;;;;;;;;;7385420;19;20156;-68
2023/07/30 01:38:53;;;;;;;0.00;0.00;;;;;;;;;;7382567;19;20161;-69
2023/07/30 01:41:22;;;;;;;0.00;0.00;;;18.40;99.90;;;;;;7382234;19;20180;-70
2023/07/30 01:43:51;;;;;;;0.00;0.00;;;18.00;99.90;;;;;;7384939;19;20136;-68
2023/07/30 01:46:19;;;;;;;0.00;0.00;;;18.10;99.90;;;;;;7385960;19;20160;-70
2023/07/30 01:48:48;;;;;;;0.00;0.00;;;18.10;99.90;;;;;;7382201;19;20175;-70
2023/07/30 01:51:17;;;;;;;0.00;0.00;;;18.00;99.90;;;;;;7382311;19;20711;-69
2023/07/30 01:53:48;;;;;;;0.00;0.00;;;18.00;99.90;;;;;;7380466;19;20167;-70
2023/07/30 01:56:16;;;;;;;0.00;0.00;;;18.10;99.90;;;;;;7384739;19;20152;-69
2023/07/30 01:58:45;;;;;;;0.00;0.00;;;;;;;;;;7382631;19;20706;-70
2023/07/30 02:01:14;;;;;;;0.00;0.00;;;;;;;;;;7381609;19;20180;-70
2023/07/30 02:03:43;;;;;;;0.00;0.00;;;;;;;;;;7383999;19;20167;-70
2023/07/30 02:06:13;;;;;;;0.00;0.00;;;;;;;;;;7386573;19;20140;-71
2023/07/30 02:08:42;;;;;;;0.00;0.00;;;;;;;;;;7383599;19;20662;-68
2023/07/30 02:11:13;;;;;;;0.00;0.00;;;;;;;;;;7382326;19;20188;-70
2023/07/30 02:13:42;;;;;;;0.00;0.00;;;;;;;;;;7383512;19;20137;-69
2023/07/30 02:16:11;;;;;;;0.00;0.00;;;;;;;;;;7383969;19;20153;-69
2023/07/30 02:18:40;;;;;;;0.00;0.00;;;;;;;;;;7383620;19;20164;-69
2023/07/30 02:21:09;;;;;;;0.00;0.00;;;;;;;;;;7380154;19;20184;-69
2023/07/30 02:23:38;;;;;;;0.00;0.00;;;;;;;;;;7382958;19;20150;-68
2023/07/30 02:26:07;;;;;;;0.00;0.00;;;;;;;;;;7383075;19;20155;-68
2023/07/30 02:28:39;;;;;;;0.00;0.00;;;;;;;;;;7383270;19;20152;-70
2023/07/30 02:31:08;;;;;;;0.00;0.00;;;;;;;;;;7380585;19;20199;-69
2023/07/30 02:33:37;;;;;;;0.00;0.00;;;;;;;;;;7381528;19;20171;-68
2023/07/30 02:36:07;;;;;;;0.00;0.00;;;;;;;;;;7382572;19;20248;-68
2023/07/30 02:38:36;;;;;;;0.00;0.00;;;;;;;;;;7380952;19;21536;-68
2023/07/30 02:41:05;;;;;;;0.00;0.00;;;;;;;;;;7378896;19;20176;-68
2023/07/30 02:43:34;;;;;;;0.00;0.00;;;;;;;;;;7382753;19;20152;-69
2023/07/30 02:46:06;;;;;;;0.00;0.00;;;;;;;;;;7382291;19;20153;-69
2023/07/30 02:48:35;;;;;;;0.00;0.00;;;;;;;;;;7382205;19;20153;-68
2023/07/30 02:51:04;;;;;;;0.00;0.00;;;;;;;;;;7378014;19;20187;-70
2023/07/30 02:53:33;;;;;;;0.00;0.00;;;;;;;;;;7381006;19;20162;-69
2023/07/30 02:56:02;;;;;;;0.00;0.00;;;;;;;;;;7381830;19;20152;-68
2023/07/30 02:58:31;;;;;;;0.00;0.00;;;;;;;;;;7382254;19;20152;-71
2023/07/30 03:01:10;;;;;;;0.00;0.00;;;;;;;;;;7380828;19;20180;-70
2023/07/30 03:03:39;;;;;;;0.00;0.00;;;;;;;;;;7382163;19;20239;-68
2023/07/30 03:06:08;;;;;;;0.00;0.00;;;;;;;;;;7381072;19;20172;-68
2023/07/30 03:08:38;;;;;;;0.00;0.00;;;;;;;;;;7382965;19;20160;-68
2023/07/30 03:11:07;;;;;;;0.00;0.00;;;;;;;;;;7379135;19;20180;-70
2023/07/30 03:13:36;;;;;;;0.00;0.00;;;;;;;;;;7379187;19;20156;-69
2023/07/30 03:16:05;;;;;;;0.00;0.00;;;;;;;;;;7381523;19;20133;-69
2023/07/30 03:18:37;;;;;;;0.00;0.00;;;;;;;;;;7383809;19;20149;-69
2023/07/30 03:21:06;;;;;;;0.00;0.00;;;;;;;;;;7380628;19;20161;-70
2023/07/30 03:23:35;;;;;;;0.00;0.00;;;;;;;;;;7381718;19;20160;-68
2023/07/30 03:26:04;;;;;;;0.00;0.00;;;;;;;;;;7380166;19;20160;-70
2023/07/30 03:28:33;;;;;;;0.00;0.00;;;;;;;;;;7381542;19;20152;-71
2023/07/30 03:31:02;;;;;;;0.00;0.00;;;;;;;;;;7378570;19;20180;-70
2023/07/30 03:33:31;;;;;;;0.00;0.00;;;;;;;;;;7379872;19;20148;-69
2023/07/30 03:36:03;;;;;;;0.00;0.00;;;;;;;;;;7379895;19;20152;-71
2023/07/30 03:38:36;;;;;;;0.00;0.00;;;;;;;;;;7381499;19;20145;-70
2023/07/30 03:41:05;;;;;;;0.00;0.00;;;;;;;;;;7377434;19;20213;-69
2023/07/30 03:43:34;;;;;;;0.00;0.00;;;;;;;;;;7381180;19;20169;-68
2023/07/30 03:46:03;;;;;;;0.00;0.00;;;;;;;;;;7382364;19;20191;-70
2023/07/30 03:48:33;;;;;;;0.00;0.00;;;;;;;;;;7380589;19;20163;-70
2023/07/30 03:51:07;;;;;;;0.00;0.00;;;;;;;;;;7379975;19;20293;-70
2023/07/30 03:53:36;;;;;;;0.00;0.00;;;;;;;;;;7379536;19;20152;-71
2023/07/30 03:56:05;;;;;;;0.00;0.00;;;;;;;;;;7378631;19;20156;-70
2023/07/30 03:58:35;;;;;;;0.00;0.00;;;;;;;;;;7380940;19;20152;-69
2023/07/30 04:01:05;;;;;;;0.00;0.00;;;;;;;;;;7377166;19;20196;-71
2023/07/30 04:03:34;;;;;;;0.00;0.00;;;;;;;;;;7380882;19;20157;-70
2023/07/30 04:06:06;;;;;;;0.00;0.00;;;;;;;;;;7378969;19;20169;-70
2023/07/30 04:08:35;;;;;;;0.00;0.00;;;;;;;;;;7382244;19;20137;-70
2023/07/30 04:11:04;;;;;;;0.00;0.00;;;;;;;;;;7376834;19;20751;-69
2023/07/30 04:13:34;;;;;;;0.00;0.00;;;;;;;;;;7380602;19;20141;-69
2023/07/30 04:16:03;;;;;;;0.00;0.00;;;;;;;;;;7378508;19;20176;-69
2023/07/30 04:18:33;;;;;;;0.00;0.00;;;;;;;;;;7380651;19;20136;-70
2023/07/30 04:21:07;;;;;;;0.00;0.00;;;;;;;;;;7376989;19;20236;-70
2023/07/30 04:23:36;;;;;;;0.00;0.00;;;;;;;;;;7379971;19;20165;-69
2023/07/30 04:26:05;;;;;;;0.00;0.00;;;;;;;;;;7380511;19;20145;-71
2023/07/30 04:28:35;;;;;;;0.00;0.00;;;;;;;;;;7381035;19;20137;-69
2023/07/30 04:31:04;;;;;;;0.00;0.00;;;;;;;;;;7376711;19;20176;-71
2023/07/30 04:33:33;;;;;;;0.00;0.00;;;;;;;;;;7378854;19;20148;-69
2023/07/30 04:36:02;;;;;;;0.00;0.00;;;;;;;;;;7377532;19;20156;-69
2023/07/30 04:38:34;;;;;;;0.00;0.00;;;;;;;;;;7377929;19;20149;-71
2023/07/30 04:41:04;;;;;;;0.00;0.00;;;;;;;;;;7376732;19;20208;-70
2023/07/30 04:43:37;;;;;;;0.00;0.00;;;;;;;;;;7378988;19;20144;-70
2023/07/30 04:46:06;;;;;;;0.00;0.00;;;;;;;;;;7378625;19;20152;-72
2023/07/30 04:48:35;;;;;;;0.00;0.00;;;;;;;;;;7379003;19;20159;-71
2023/07/30 04:51:04;;;;;;;0.00;0.00;;;;;;;;;;7376430;19;20176;-69
2023/07/30 04:53:37;;;;;;;0.00;0.00;;;;;;;;;;7377234;19;20163;-70
2023/07/30 04:56:06;;;;;;;0.00;0.00;;;;;;;;;;7379010;19;20145;-71
2023/07/30 04:58:35;;;;;;;0.00;0.00;;;;;;;;;;7378330;19;20149;-70
2023/07/30 05:01:05;;;;;;;0.00;0.00;;;;;;;;;;7374297;19;20182;-71
2023/07/30 05:03:34;;;;;;;0.00;0.00;;;;;;;;;;7377703;19;20173;-70
2023/07/30 05:06:03;;;;;;;0.00;0.00;;;;;;;;;;7377874;19;20137;-68
2023/07/30 05:08:32;;;;;;;0.00;0.00;;;;;;;;;;7379280;19;20133;-69
2023/07/30 05:11:03;;;;;;;0.00;0.00;;;;;;;;;;7375729;19;20218;-70
2023/07/30 05:13:32;;;;;;;0.00;0.00;;;;;;;;;;7380885;19;20501;-71
2023/07/30 05:16:01;;;;;;;0.00;0.00;;;;;;;;;;7386776;19;20140;-69
2023/07/30 05:18:30;;;;;;;0.00;0.00;;;;;;;;;;7386120;19;20161;-70
2023/07/30 05:21:00;;;;;;;0.00;0.00;;;;;;;;;;7383898;19;20188;-70
2023/07/30 05:23:29;;;;;;;0.00;0.00;;;;;;;;;;7385450;19;20153;-71
2023/07/30 05:25:58;;;;;;;0.00;0.00;;;;;;;;;;7384231;19;20148;-69
2023/07/30 05:28:33;;;;;;;0.00;0.00;;;;;;;;;;7384896;19;20156;-68
2023/07/30 05:31:02;;;;;;;0.00;0.00;;;;;;;;;;7383761;19;20191;-71
2023/07/30 05:33:31;;;;;;;0.00;0.00;;;;;;;;;;7383770;19;20149;-69
2023/07/30 05:36:00;;;;;;;0.00;0.00;;;;;;;;;;7385550;19;20141;-69
2023/07/30 05:38:29;;;;;;;0.00;0.00;;;;;;;;;;7385424;19;20141;-70
2023/07/30 05:40:58;;;;;;;0.00;0.00;;;;;;;;;;7382819;19;20189;-71
2023/07/30 05:43:29;;;;;;;0.00;0.00;;;;;;;;;;7383112;19;20157;-69
2023/07/30 05:45:58;;;;;;;0.00;0.00;;;;;;;;;;7386133;19;20133;-71
2023/07/30 05:48:27;;;;;;;0.00;0.00;;;;;;;;;;7386228;19;20162;-71
2023/07/30 05:50:58;;;;;;;0.00;0.00;;;;;;;;;;7383664;19;20175;-71
2023/07/30 05:53:27;;;;;;;0.00;0.00;;;;;;;;;;7382801;19;20149;-69
2023/07/30 05:55:56;;;;;;;0.00;0.00;;;;;;;;;;7383869;19;20190;-70
2023/07/30 05:58:25;;;;;;;0.00;0.00;;;;;;;;;;7383844;19;20156;-70
2023/07/30 06:00:57;;;;;;;0.00;0.00;;;;;;;;;;7381947;19;20176;-70
2023/07/30 06:03:26;;;;;;;0.00;0.00;;;;;;;;;;7386017;19;20140;-71
2023/07/30 06:05:55;;;;;;;0.00;0.00;;;;;;;;;;7384436;19;20157;-70
2023/07/30 06:08:24;;;;;;;0.00;0.00;;;;;;;;;;7385433;19;20144;-70
2023/07/30 06:10:53;;;;;;;0.00;0.00;;;;;;;;;;7384389;19;20167;-70
2023/07/30 06:13:22;;;;;;;0.00;0.00;;;;;;;;;;7383850;19;20129;-70
2023/07/30 06:15:51;;;;;;;0.00;0.00;;;;;;;;;;7383382;19;20181;-70
2023/07/30 06:18:23;;;;;;;0.00;0.00;;;;;;;;;;7383733;19;20617;-71
2023/07/30 06:20:52;;;;;;;0.00;0.00;;;;;;;;;;7382294;19;20176;-71
2023/07/30 06:23:21;;;;;;;0.00;0.00;;;;;;;;;;7382624;19;20187;-69
2023/07/30 06:25:50;;;;;;;0.00;0.00;;;;;;;;;;7383470;19;20151;-72
2023/07/30 06:28:19;;;;;;;0.00;0.00;;;;;;;;;;7383271;19;20161;-69
2023/07/30 06:30:48;;;;;;;0.00;0.00;;;;;;;;;;7383849;19;20157;-68
2023/07/30 06:33:17;;;;;;;0.00;0.00;;;;;;;;;;7381855;19;20177;-69
2023/07/30 06:35:48;;;;;;;0.00;0.00;;;;;;;;;;7385206;19;20150;-70
2023/07/30 06:38:17;;;;;;;0.00;0.00;;;;;;;;;;7382142;19;20157;-69
2023/07/30 06:40:48;;;;;;;0.00;0.00;;;23.20;99.90;;;;;;7381146;19;20184;-70
2023/07/30 06:43:17;;;;;;;0.00;0.00;;;23.60;99.90;;;;;;7382430;19;20141;-69
2023/07/30 06:45:46;;;;;;;0.00;0.00;;;23.80;99.90;;;;;;7383467;19;20141;-69
2023/07/30 06:48:15;;;;;;;0.00;0.00;;;23.70;99.90;;;;;;7383064;19;20160;-70
2023/07/30 06:50:44;;;;;;;0.00;0.00;;;23.70;99.90;;;;;;7380879;19;20176;-67
2023/07/30 06:53:16;;;;;;;0.00;0.00;;;23.80;99.90;;;;;;7380896;19;20177;-69
2023/07/30 06:55:44;;;;;;;0.00;0.00;;;24.00;99.90;;;;;;7382628;19;20153;-69
2023/07/30 06:58:14;;;;;;;0.00;0.00;;;;;;;;;;7381175;19;20179;-69
2023/07/30 07:00:43;;;;;;;0.00;0.00;;;;;;;;;;7382506;19;20173;-70
2023/07/30 07:03:12;;;;;;;0.00;0.00;;;24.00;99.90;;;;;;7381956;19;20149;-70
2023/07/30 07:05:41;;;;;;;0.00;0.00;;;24.30;99.90;;;;;;7381438;19;20171;-72
2023/07/30 07:08:10;;;;;;;0.00;0.00;;;24.40;99.90;;;;;;7382690;19;20208;-71
2023/07/30 07:10:41;;;;;;;0.00;0.00;;;24.50;99.90;;;;;;7381963;19;20196;-71
2023/07/30 07:13:10;;;;;;;0.00;0.00;;;;;;;;;;7381962;19;20148;-71
2023/07/30 07:15:39;;;;;;;0.00;0.00;;;;;;;;;;7380728;19;20220;-70
2023/07/30 07:18:08;;;;;;;0.00;0.00;;;;;;;;;;7382089;19;20153;-70
2023/07/30 07:20:37;;;;;;;0.00;0.00;;;24.50;99.90;;;;;;7381560;19;20173;-70
2023/07/30 07:23:06;;;;;;;0.00;0.00;;;;;;;;;;7381524;19;20152;-68
2023/07/30 07:25:37;;;;;;;0.00;0.00;;;;;;;;;;7382221;19;20136;-67
2023/07/30 07:28:08;;;;;;;0.00;0.00;;;;;;;;;;7380902;19;20160;-68
2023/07/30 07:30:38;;;;;;;0.00;0.00;;;;;;;;;;7380864;19;20169;-68
2023/07/30 07:33:11;;;;;;;0.00;0.00;;;;;;;;;;7382550;19;20154;-68
2023/07/30 07:35:40;;;;;;;0.00;0.00;;;;;;;;;;7380531;19;20139;-67
2023/07/30 07:38:09;;;;;;;0.00;0.00;;;;;;;;;;7381250;19;20133;-67
2023/07/30 07:40:39;;;;;;;0.00;0.00;;;;;;;;;;7378715;19;20243;-68
2023/07/30 07:43:11;;;;;;;0.00;0.00;;;;;;;;;;7380076;19;20192;-68
2023/07/30 07:45:40;;;;;;;0.00;0.00;;;;;;;;;;7381515;19;20143;-69
2023/07/30 07:48:09;;;;;;;0.00;0.00;;;;;;;;;;7380048;19;20227;-66
2023/07/30 07:50:38;;;;;;;0.00;0.00;;;;;;;;;;7380011;19;20209;-69
2023/07/30 07:53:07;;;;;;;0.00;0.00;;;;;;;;;;7379493;19;20172;-69
2023/07/30 07:55:36;;;;;;;0.00;0.00;;;;;;;;;;7377565;19;20149;-68
2023/07/30 07:58:05;;;;;;;0.00;0.00;;;;;;;;;;7379194;19;20151;-69
2023/07/30 08:00:36;;;;;;;0.00;0.00;;;;;;;;;;7379957;19;20161;-68
2023/07/30 08:03:06;;;;;;;0.00;0.00;;;;;;;;;;7379574;19;20156;-68
2023/07/30 08:05:35;;;;;;;0.00;0.00;;;;;;;;;;7380139;19;20151;-69
2023/07/30 08:08:04;;;;;;;0.00;0.00;;;;;;;;;;7378961;19;20159;-67
2023/07/30 08:10:33;;;;;;;0.00;0.00;;;;;;;;;;7377622;19;20235;-67
2023/07/30 08:13:02;;;;;;;0.00;0.00;;;;;;;;;;7380021;19;20148;-68
2023/07/30 08:15:31;;;;;;;0.00;0.00;;;;;;;;;;7378018;19;20224;-69
2023/07/30 08:18:03;;;;;;;0.00;0.00;;;;;;;;;;7380270;19;20223;-68
2023/07/30 08:20:32;;;;;;;0.00;0.00;;;;;;;;;;7377843;19;20184;-69
2023/07/30 08:23:01;;;;;;;0.00;0.00;;;;;;;;;;7380875;19;20140;-70
2023/07/30 08:25:30;;;;;;;0.00;0.00;;;;;;;;;;7379767;19;20129;-68
2023/07/30 08:27:59;;;;;;;0.00;0.00;;;;;;;;;;7380232;19;20489;-68
2023/07/30 08:30:28;;;;;;;0.00;0.00;;;;;;;;;;7378285;19;20624;-69
2023/07/30 08:32:56;;;;;;;0.00;0.00;;;;;;;;;;7379466;19;20206;-69
2023/07/30 08:35:29;;;;;;;0.00;0.00;;;;;;;;;;7378719;19;20208;-70
2023/07/30 08:37:58;;;;;;;0.00;0.00;;;;;;;;;;7380342;19;20133;-69
2023/07/30 08:40:28;;;;;;;0.00;0.00;;;;;;;;;;7377436;19;20189;-69
2023/07/30 08:42:57;;;;;;;0.00;0.00;;;;;;;;;;7378380;19;20579;-68
2023/07/30 08:45:26;;;;;;;0.00;0.00;;;;;;;;;;7379365;19;20137;-69
2023/07/30 08:47:55;;;;;;;0.00;0.00;;;;;;;;;;7381335;19;20145;-68
2023/07/30 08:50:24;;;;;;;0.00;0.00;;;;;;;;;;7385480;19;20145;-69
2023/07/30 08:52:57;;;;;;;0.00;0.00;;;;;;;;;;7388835;19;20133;-68
2023/07/30 08:55:28;;;;;;;0.00;0.00;;;;;;;;;;7385280;19;20145;-68
2023/07/30 08:57:57;;;;;;;0.00;0.00;;;;;;;;;;7388201;19;20135;-68
2023/07/30 09:00:28;;;;;;;0.00;0.00;;;;;;;;;;7385385;19;20153;-68
2023/07/30 09:02:58;;;;;;;0.00;0.00;;;;;;;;;;7386623;19;20177;-68
2023/07/30 09:05:28;;;;;;;0.00;0.00;;;;;;;;;;7386814;19;20155;-69
2023/07/30 09:08:01;;;;;;;0.00;0.00;;;;;;;;;;7387655;19;20161;-68
2023/07/30 09:10:30;;;;;;;0.00;0.00;;;;;;;;;;7384015;19;20181;-69
2023/07/30 09:13:00;;;;;;;0.00;0.00;;;;;;;;;;7384851;19;20160;-67
2023/07/30 09:15:34;;;;;;;0.00;0.00;;;;;;;;;;7382924;19;20157;-68
2023/07/30 09:18:03;;;;;;;0.00;0.00;;;;;;;;;;7385860;19;20232;-68
2023/07/30 09:20:39;;;;;;;0.00;0.00;;;;;;;;;;7383387;19;20188;-67
2023/07/30 09:23:12;;;;;;;0.00;0.00;;;;;;;;;;7383479;19;20133;-70
2023/07/30 09:25:41;;;;;;;0.00;0.00;;;;;;;;;;7386110;19;20144;-69
2023/07/30 09:28:10;;;;;;;0.00;0.00;;;;;;;;;;7384487;19;20148;-69
2023/07/30 09:30:39;;;;;;;0.00;0.00;;;;;;;;;;7384020;19;20157;-70
2023/07/30 09:33:08;;;;;;;0.00;0.00;;;;;;;;;;7386038;19;20137;-70
2023/07/30 09:35:37;;;;;;;0.00;0.00;;;;;;;;;;7383773;19;20163;-68
2023/07/30 09:38:06;;;;;;;0.00;0.00;;;;;;;;;;7385996;19;20137;-68
2023/07/30 09:40:39;;;;;;;0.00;0.00;;;;;;;;;;7384377;19;20161;-69
2023/07/30 09:43:09;;;;;;;0.00;0.00;;;;;;;;;;7384875;19;20163;-69
2023/07/30 09:45:38;;;;;;;0.00;0.00;;;;;;;;;;7385747;19;20164;-68
2023/07/30 09:48:08;;;;;;;0.00;0.00;;;;;;;;;;7384375;19;20156;-69
2023/07/30 09:50:37;;;;;;;0.00;0.00;;;;;;;;;;7383558;19;20152;-68
2023/07/30 09:53:07;;;;;;;0.00;0.00;;;;;;;;;;7384939;19;20137;-66
2023/07/30 09:55:39;;;;;;;0.00;0.00;;;;;;;;;;7378797;19;20261;-67
2023/07/30 09:58:11;;;;;;;0.00;0.00;;;;;;;;;;7384205;19;20141;-67
2023/07/30 10:00:40;;;;;;;0.00;0.00;;;;;;;;;;7380979;19;20187;-67
2023/07/30 10:03:10;;;;;;;0.00;0.00;;;;;;;;;;7383652;19;20164;-67
2023/07/30 10:05:40;;;;;;;0.00;0.00;;;;;;;;;;7383002;19;20181;-69
2023/07/30 10:08:12;;;;;;;0.00;0.00;;;;;;;;;;7384408;19;20138;-69
2023/07/30 10:10:44;;;;;;;0.00;0.00;;;;;;;;;;7382351;19;20189;-68
2023/07/30 10:13:14;;;;;;;0.00;0.00;;;;;;;;;;7384966;19;20133;-67
2023/07/30 10:15:44;;;;;;;0.00;0.00;;;;;;;;;;7381932;19;20173;-67
2023/07/30 10:18:13;;;;;;;0.00;0.00;;;;;;;;;;7385174;19;20140;-66
2023/07/30 10:20:42;;;;;;;0.00;0.00;;;;;;;;;;7383570;19;20160;-69
2023/07/30 10:23:11;;;;;;;0.00;0.00;;;;;;;;;;7382223;19;20155;-67
2023/07/30 10:25:49;;;;;;;0.00;0.00;;;;;;;;;;7383773;19;20140;-69
2023/07/30 10:28:36;;;;;;;0.00;0.00;;;;;;;;;;7381976;19;20166;-66
2023/07/30 10:31:08;;;;;;;0.00;0.00;;;;;;;;;;7379298;19;20256;-66
2023/07/30 10:33:49;;;;;;;0.00;0.00;;;;;;;;;;7383777;19;20141;-69
2023/07/30 10:36:20;;;;;;;0.00;0.00;;;;;;;;;;7380136;19;20232;-68
2023/07/30 10:38:49;;;;;;;0.00;0.00;;;;;;;;;;7382189;19;20149;-69
2023/07/30 10:41:22;;;;;;;0.00;0.00;;;;;;;;;;7379831;19;20184;-67
2023/07/30 10:43:53;;;;;;;0.00;0.00;;;;;;;;;;7382895;19;20153;-69
2023/07/30 10:46:22;;;;;;;0.00;0.00;;;;;;;;;;7384839;19;20703;-68
2023/07/30 10:48:52;;;;;;;0.00;0.00;;;;;;;;;;7383687;19;20144;-69
2023/07/30 10:51:23;;;;;;;0.00;0.00;;;;;;;;;;7381802;19;20157;-67
2023/07/30 10:53:53;;;;;;;0.00;0.00;;;;;;;;;;7383911;19;20136;-66
2023/07/30 10:56:25;;;;;;;0.00;0.00;;;;;;;;;;7381506;19;20137;-67
2023/07/30 10:58:55;;;;;;;0.00;0.00;;;;;;;;;;7380331;19;20153;-67
2023/07/30 11:01:27;;;;;;;0.00;0.00;;;;;;;;;;7377587;19;20208;-67
2023/07/30 11:03:56;;;;;;;0.00;0.00;;;;;;;;;;7382782;19;20169;-68
2023/07/30 11:06:25;;;;;;;0.00;0.00;;;;;;;;;;7382460;19;20129;-69
2023/07/30 11:08:54;;;;;;;0.00;0.00;;;;;;;;;;7382416;19;20148;-69
2023/07/30 11:11:27;;;;;;;0.00;0.00;;;;;;;;;;7377306;19;20181;-68
2023/07/30 11:13:55;;;;;;;0.00;0.00;;;;;;;;;;7381239;19;20156;-68
2023/07/30 11:16:24;;;;;;;0.00;0.00;;;;;;;;;;7379718;19;20182;-70
2023/07/30 11:18:53;;;;;;;0.00;0.00;;;;;;;;;;7380234;19;20141;-67
2023/07/30 11:21:23;;;;;;;0.00;0.00;;;;;;;;;;7375385;19;20173;-67
2023/07/30 11:23:54;;;;;;;0.00;0.00;;;;;;;;;;7380289;19;20148;-69
2023/07/30 11:26:23;;;;;;;0.00;0.00;;;;;;;;;;7381125;19;20149;-68
2023/07/30 11:28:56;;;;;;;0.00;0.00;;;;;;;;;;7380305;19;20156;-67
2023/07/30 11:31:27;;;;;;;0.00;0.00;;;;;;;;;;7379460;19;20207;-70
2023/07/30 11:33:56;;;;;;;0.00;0.00;;;;;;;;;;7379954;19;20156;-70
2023/07/30 11:36:27;;;;;;;0.00;0.00;;;;;;;;;;7380441;19;20140;-68
2023/07/30 11:38:56;;;;;;;0.00;0.00;;;;;;;;;;7380960;19;20137;-68
2023/07/30 11:41:27;;;;;;;0.00;0.00;;;;;;;;;;7379847;19;20200;-69
2023/07/30 11:43:59;;;;;;;0.00;0.00;;;;;;;;;;7380364;19;20192;-69
2023/07/30 11:46:29;;;;;;;0.00;0.00;;;;;;;;;;7379013;19;20143;-68
2023/07/30 11:49:16;;;;;;;0.00;0.00;;;27.20;99.90;;;;;;7379234;19;20153;-68
2023/07/30 11:51:47;;;;;;;0.00;0.00;;;24.40;99.90;;;;;;7378936;19;20159;-67
2023/07/30 11:54:22;;;;;;;0.00;0.00;;;24.30;99.90;;;;;;7379735;19;20171;-67
2023/07/30 11:56:57;;;;;;;0.00;0.00;;;24.30;99.90;;;;;;7376751;19;20175;-68
2023/07/30 11:59:29;;;;;;;0.00;0.00;;;24.20;99.90;;;;;;7377474;19;20219;-69
2023/07/30 12:01:58;;;;;;;0.00;0.00;;;24.20;99.90;;;;;;7376093;19;20200;-67
2023/07/30 12:04:27;;;;;;;0.00;0.00;;;24.10;99.90;;;;;;7381356;19;20216;-67
2023/07/30 12:06:56;;;;;;;0.00;0.00;;;24.10;99.90;;;;;;7380247;19;20148;-68
2023/07/30 12:09:27;;;;;;;0.00;0.00;;;24.00;99.90;;;;;;7377807;19;20173;-67
2023/07/30 12:11:57;;;;;;;0.00;0.00;;;24.00;99.90;;;;;;7376657;19;20218;-68
2023/07/30 12:14:33;;;;;;;0.00;0.00;;;23.90;99.90;;;;;;7380631;19;20137;-67
2023/07/30 12:17:02;;;;;;;0.00;0.00;;;23.90;99.90;;;;;;7377264;19;20152;-67
2023/07/30 12:19:31;;;;;;;0.00;0.00;;;24.00;99.90;;;;;;7380084;19;20135;-68
2023/07/30 12:22:01;;;;;;;0.00;0.00;;;24.00;99.90;;;;;;7377789;19;20152;-69
2023/07/30 12:24:29;;;;;;;0.00;0.00;;;23.90;99.90;;;;;;7383186;19;20140;-68
2023/07/30 12:26:58;;;;;;;0.00;0.00;;;23.90;99.90;;;;;;7384561;19;20189;-67
2023/07/30 12:29:30;;;;;;;0.00;0.00;;;23.90;99.90;;;;;;7385080;19;20180;-68
2023/07/30 12:31:58;;;;;;;0.00;0.00;;;23.80;99.90;;;;;;7381046;19;20158;-67
2023/07/30 12:34:27;;;;;;;0.00;0.00;;;23.70;99.90;;;;;;7383832;19;20184;-67
2023/07/30 12:36:57;;;;;;;0.00;0.00;;;23.30;99.90;;;;;;7382130;19;20156;-67
2023/07/30 12:39:26;;;;;;;0.00;0.00;;;;;;;;;;7382203;19;20156;-67
2023/07/30 12:41:55;;;;;;;0.00;0.00;;;23.40;99.90;;;;;;7382631;19;20196;-67
2023/07/30 12:44:24;;;;;;;0.00;0.00;;;23.10;99.90;;;;;;7388095;19;20133;-67
2023/07/30 12:46:56;;;;;;;0.00;0.00;;;23.00;99.90;;;;;;7386764;19;20145;-68
2023/07/30 12:49:25;;;;;;;0.00;0.00;;;23.50;99.90;;;;;;7387513;19;20173;-66
2023/07/30 12:51:53;;;;;;;0.00;0.00;;;22.90;99.90;;;;;;7383998;19;20216;-67
2023/07/30 12:54:22;;;;;;;0.00;0.00;;;22.90;99.90;;;;;;7387317;19;20136;-67
2023/07/30 12:56:51;;;;;;;0.00;0.00;;;22.90;99.90;;;;;;7382545;19;20163;-68
2023/07/30 12:59:20;;;;;;;0.00;0.00;;;22.90;99.90;;;;;;7386265;19;20152;-67
2023/07/30 13:01:48;;;;;;;0.00;0.00;;;22.70;99.90;;;;;;7383216;19;20209;-68
2023/07/30 13:04:20;;;;;;;0.00;0.00;;;22.70;99.90;;;;;;7386966;19;20147;-68
2023/07/30 13:06:49;;;;;;;0.00;0.00;;;22.70;99.90;;;;;;7387132;19;20686;-67
2023/07/30 13:09:18;;;;;;;0.00;0.00;;;22.60;99.90;;;;;;7384813;19;20168;-69
2023/07/30 13:11:46;;;;;;;0.00;0.00;;;22.50;99.90;;;;;;7383935;19;20208;-66
2023/07/30 13:14:15;;;;;;;0.00;0.00;;;22.40;99.90;;;;;;7386983;19;20136;-68
2023/07/30 13:16:44;;;;;;;0.00;0.00;;;22.40;99.90;;;;;;7385189;19;20137;-70
2023/07/30 13:19:13;;;;;;;0.00;0.00;;;22.30;99.90;;;;;;7384495;19;20152;-67
2023/07/30 13:21:44;;;;;;;0.00;0.00;;;22.30;99.90;;;;;;7382967;19;20192;-67
2023/07/30 13:24:13;;;;;;;0.00;0.00;;;22.30;99.90;;;;;;7383917;19;20157;-67
2023/07/30 13:26:42;;;;;;;0.00;0.00;;;22.30;99.90;;;;;;7385887;19;20177;-69
2023/07/30 13:29:10;;;;;;;0.00;0.00;;;22.30;99.90;;;;;;7385611;19;20144;-66
2023/07/30 13:31:39;;;;;;;0.00;0.00;;;22.30;99.90;;;;;;7384374;19;20152;-68
2023/07/30 13:34:08;;;;;;;0.00;0.00;;;22.30;99.90;;;;;;7385701;19;20133;-66
2023/07/30 13:36:37;;;;;;;0.00;0.00;;;22.40;99.90;;;;;;7385123;19;20137;-67
2023/07/30 13:39:08;;;;;;;0.00;0.00;;;22.40;99.90;;;;;;7385697;19;20158;-68
2023/07/30 13:41:37;;;;;;;0.00;0.00;;;22.40;99.90;;;;;;7381606;19;20188;-67
2023/07/30 13:44:06;;;;;;;0.00;0.00;;;22.30;99.90;;;;;;7384909;19;20148;-69
2023/07/30 13:46:35;;;;;;;0.00;0.00;;;22.30;99.90;;;;;;7385955;19;20166;-67
2023/07/30 13:49:04;;;;;;;0.00;0.00;;;;;;;;;;7382793;19;20149;-68
2023/07/30 13:51:32;;;;;;;0.00;0.00;;;22.20;99.90;;;;;;7381682;19;20183;-68
2023/07/30 13:54:01;;;;;;;0.00;0.00;;;22.10;99.90;;;;;;7384029;19;20183;-68
2023/07/30 13:56:33;;;;;;;0.00;0.00;;;22.10;99.90;;;;;;7384485;19;20624;-67
2023/07/30 13:59:02;;;;;;;0.00;0.00;;;22.30;99.90;;;;;;7384532;19;20153;-68
2023/07/30 14:01:31;;;;;;;0.00;0.00;;;22.20;99.90;;;;;;7382489;19;20151;-70
2023/07/30 14:04:00;;;;;;;0.00;0.00;;;22.30;99.90;;;;;;7383045;19;20174;-68
2023/07/30 14:06:30;;;;;;;0.00;0.00;;;22.30;99.90;;;;;;7384362;19;20161;-67
2023/07/30 14:09:00;;;;;;;0.00;0.00;;;22.30;99.90;;;;;;7381921;19;20183;-67
2023/07/30 14:11:30;;;;;;;0.00;0.00;;;22.30;99.90;;;;;;7379443;19;20176;-68
2023/07/30 14:14:02;;;;;;;0.00;0.00;;;22.40;99.90;;;;;;7381363;19;20157;-68
2023/07/30 14:16:30;;;;;;;0.00;0.00;;;22.30;99.90;;;;;;7381342;19;20200;-69
2023/07/30 14:18:59;;;;;;;0.00;0.00;;;22.40;99.90;;;;;;7384696;19;20144;-68
2023/07/30 14:21:28;;;;;;;0.00;0.00;;;22.40;99.90;;;;;;7382489;19;20178;-68
2023/07/30 14:23:56;;;;;;;0.00;0.00;;;22.50;99.90;;;;;;7382933;19;20177;-68
2023/07/30 14:26:25;;;;;;;0.00;0.00;;;22.50;99.90;;;;;;7382773;19;20156;-69